createdAt,value
2019-04-27T00:02:06.560Z,67.80
2019-04-27T00:04:37.724Z,69.20
2019-04-27T00:07:16.950Z,71.20
2019-04-27T00:09:50.248Z,72.70
2019-04-27T00:12:16.450Z,73.80
2019-04-27T00:14:48.293Z,75.00
2019-04-27T00:17:45.386Z,76.20
2019-04-27T00:20:23.828Z,77.60
2019-04-27T00:22:59.010Z,78.50
2019-04-27T00:25:27.730Z,79.50
2019-04-27T00:27:55.706Z,80.00
2019-04-27T00:30:23.644Z,80.40
2019-04-27T00:32:53.611Z,80.50
2019-04-27T00:35:23.500Z,80.60
2019-04-27T00:37:58.708Z,81.00
2019-04-27T00:40:28.363Z,80.20
2019-04-27T00:42:56.484Z,79.90
2019-04-27T00:45:26.840Z,79.90
2019-04-27T00:47:59.508Z,80.00
2019-04-27T00:50:24.371Z,80.20
2019-04-27T00:52:53.191Z,80.50
2019-04-27T00:55:23.338Z,80.50
2019-04-27T00:58:03.951Z,80.80
2019-04-27T01:00:41.444Z,80.90
2019-04-27T01:03:13.994Z,80.80
2019-04-27T01:05:43.035Z,80.90
2019-04-27T01:08:13.888Z,81.00
2019-04-27T01:10:43.508Z,81.10
2019-04-27T01:13:13.123Z,81.30
2019-04-27T01:15:43.026Z,81.20
2019-04-27T01:18:15.018Z,81.20
2019-04-27T01:20:40.774Z,81.10
2019-04-27T01:23:08.892Z,81.00
2019-04-27T01:25:48.876Z,80.90
2019-04-27T01:28:20.654Z,81.10
2019-04-27T01:30:50.639Z,81.30
2019-04-27T01:33:19.784Z,81.30
2019-04-27T01:35:49.152Z,81.40
2019-04-27T01:38:19.168Z,81.50
2019-04-27T01:40:47.098Z,81.30
2019-04-27T01:43:15.106Z,81.30
2019-04-27T01:45:43.132Z,81.00
2019-04-27T01:48:23.003Z,81.00
2019-04-27T01:50:40.843Z,81.20
2019-04-27T01:53:09.176Z,81.30
2019-04-27T01:55:38.619Z,81.00
2019-04-27T01:58:08.830Z,81.10
2019-04-27T02:00:42.957Z,81.00
2019-04-27T02:03:15.639Z,81.10
2019-04-27T02:05:49.215Z,81.30
2019-04-27T02:08:17.304Z,81.50
2019-04-27T02:10:45.157Z,82.60
2019-04-27T02:13:18.803Z,81.80
2019-04-27T02:15:42.773Z,82.00
2019-04-27T02:18:10.887Z,82.20
2019-04-27T02:20:38.868Z,82.50
2019-04-27T02:23:09.173Z,82.80
2019-04-27T02:25:39.630Z,82.80
2019-04-27T02:28:15.208Z,83.00
2019-04-27T02:30:44.744Z,83.30
2019-04-27T02:33:32.183Z,83.40
2019-04-27T02:36:00.471Z,83.50
2019-04-27T02:38:30.502Z,83.40
2019-04-27T02:40:59.808Z,83.40
2019-04-27T02:43:29.830Z,83.40
2019-04-27T02:46:00.423Z,83.40
2019-04-27T02:48:29.963Z,83.40
2019-04-27T02:51:10.083Z,83.50
2019-04-27T02:53:52.645Z,83.80
2019-04-27T02:56:22.602Z,83.90
2019-04-27T02:58:50.773Z,84.10
2019-04-27T03:01:20.210Z,84.10
2019-04-27T03:03:50.227Z,84.20
2019-04-27T03:06:19.879Z,84.20
2019-04-27T03:08:52.847Z,83.90
2019-04-27T03:11:20.497Z,84.00
2019-04-27T03:13:52.007Z,83.90
2019-04-27T03:16:22.697Z,83.90
2019-04-27T03:19:18.227Z,83.60
2019-04-27T03:22:02.296Z,83.50
2019-04-27T03:24:49.770Z,83.50
2019-04-27T03:27:20.184Z,83.20
2019-04-27T03:29:49.915Z,83.20
2019-04-27T03:32:22.430Z,83.30
2019-04-27T03:34:51.854Z,83.20
2019-04-27T03:37:20.282Z,83.40
2019-04-27T03:39:51.154Z,83.40
2019-04-27T03:42:22.435Z,83.60
2019-04-27T03:44:50.522Z,83.20
2019-04-27T03:47:20.743Z,83.20
2019-04-27T03:49:50.888Z,83.20
2019-04-27T03:52:39.593Z,83.20
2019-04-27T03:55:14.481Z,83.30
2019-04-27T03:57:55.862Z,83.60
2019-04-27T04:00:25.823Z,83.80
2019-04-27T04:02:53.905Z,83.80
2019-04-27T04:05:22.032Z,83.80
2019-04-27T04:07:50.502Z,83.70
2019-04-27T04:10:19.782Z,83.50
2019-04-27T04:12:50.082Z,83.50
2019-04-27T04:15:31.768Z,83.50
2019-04-27T04:17:59.779Z,83.10
2019-04-27T04:20:30.277Z,82.70
2019-04-27T04:23:00.208Z,82.40
2019-04-27T04:25:33.004Z,82.10
2019-04-27T04:28:00.664Z,81.70
2019-04-27T04:30:30.246Z,81.50
2019-04-27T04:33:01.755Z,81.40
2019-04-27T04:35:33.337Z,81.50
2019-04-27T04:38:01.586Z,81.30
2019-04-27T04:40:31.337Z,81.20
2019-04-27T04:43:10.547Z,80.80
2019-04-27T04:45:56.028Z,80.40
2019-04-27T04:48:24.218Z,80.00
2019-04-27T04:50:52.178Z,79.80
2019-04-27T04:53:20.732Z,79.20
2019-04-27T04:55:52.506Z,79.10
2019-04-27T04:58:21.176Z,79.00
2019-04-27T05:00:50.206Z,78.90
2019-04-27T05:03:21.888Z,78.80
2019-04-27T05:05:50.234Z,78.80
2019-04-27T05:08:19.069Z,78.90
2019-04-27T05:10:49.704Z,78.90
2019-04-27T05:13:19.355Z,78.90
2019-04-27T05:15:48.688Z,78.80
2019-04-27T05:18:18.964Z,78.80
2019-04-27T05:20:48.670Z,78.50
2019-04-27T05:23:18.648Z,78.20
2019-04-27T05:25:46.999Z,78.20
2019-04-27T05:28:14.892Z,78.20
2019-04-27T05:30:42.905Z,78.20
2019-04-27T05:33:10.863Z,78.20
2019-04-27T05:35:43.444Z,78.40
2019-04-27T05:38:13.610Z,78.20
2019-04-27T05:40:42.367Z,78.10
2019-04-27T05:43:11.964Z,78.00
2019-04-27T05:45:43.025Z,77.90
2019-04-27T05:48:12.477Z,77.80
2019-04-27T05:50:45.706Z,77.80
2019-04-27T05:53:22.188Z,77.80
2019-04-27T05:55:49.981Z,77.90
2019-04-27T05:58:19.431Z,78.00
2019-04-27T06:00:49.574Z,78.20
2019-04-27T06:03:18.645Z,78.20
2019-04-27T06:06:01.732Z,78.20
2019-04-27T06:08:29.444Z,77.60
2019-04-27T06:10:59.089Z,77.40
2019-04-27T06:13:30.995Z,77.70
2019-04-27T06:15:59.260Z,77.90
2019-04-27T06:18:29.158Z,77.70
2019-04-27T06:20:57.053Z,77.70
2019-04-27T06:23:28.856Z,77.70
2019-04-27T06:25:56.723Z,78.10
2019-04-27T06:28:24.685Z,78.50
2019-04-27T06:30:55.615Z,78.50
2019-04-27T06:33:31.989Z,78.60
2019-04-27T06:35:53.897Z,78.60
2019-04-27T06:38:22.013Z,78.80
2019-04-27T06:40:50.893Z,79.00
2019-04-27T06:43:20.534Z,78.90
2019-04-27T06:45:48.876Z,78.80
2019-04-27T06:48:17.255Z,78.40
2019-04-27T06:50:45.935Z,78.20
2019-04-27T06:53:22.195Z,77.90
2019-04-27T06:55:54.947Z,77.60
2019-04-27T06:58:24.525Z,76.30
2019-04-27T07:00:56.186Z,75.90
2019-04-27T07:03:24.166Z,75.80
2019-04-27T07:05:53.532Z,75.60
2019-04-27T07:08:21.654Z,75.90
2019-04-27T07:13:53.035Z,76.50
2019-04-27T07:33:11.103Z,75.70
2019-04-27T07:35:39.730Z,75.40
2019-04-27T07:38:10.570Z,74.90
2019-04-27T07:43:31.594Z,74.90
2019-04-27T07:46:00.027Z,75.10
2019-04-27T07:51:32.053Z,75.00
2019-04-27T07:54:00.115Z,74.70
2019-04-27T07:56:30.424Z,74.50
2019-04-27T08:02:02.653Z,74.30
2019-04-27T08:04:34.082Z,73.90
2019-04-27T08:07:03.709Z,73.70
2019-04-27T08:09:31.753Z,73.80
2019-04-27T08:12:03.568Z,73.80
2019-04-27T08:14:39.869Z,73.50
2019-04-27T08:17:09.618Z,73.40
2019-04-27T08:19:39.454Z,73.40
2019-04-27T08:25:03.548Z,73.20
2019-04-27T08:27:39.360Z,73.30
2019-04-27T08:30:14.325Z,73.40
2019-04-27T08:35:43.127Z,73.90
2019-04-27T08:38:12.986Z,74.00
2019-04-27T08:40:59.279Z,74.00
2019-04-27T08:43:39.020Z,73.70
2019-04-27T08:46:10.139Z,73.70
2019-04-27T08:48:40.034Z,73.80
2019-04-27T08:51:09.580Z,73.80
2019-04-27T08:53:39.808Z,73.70
2019-04-27T08:56:15.541Z,73.80
2019-04-27T09:01:24.803Z,74.00
2019-04-27T09:04:02.877Z,73.60
2019-04-27T09:06:31.234Z,73.20
2019-04-27T09:09:09.498Z,72.90
2019-04-27T09:14:42.240Z,72.90
2019-04-27T09:20:31.174Z,72.80
2019-04-27T09:32:08.902Z,72.20
2019-04-27T09:34:27.118Z,72.20
2019-04-27T09:42:41.071Z,72.60
2019-04-27T09:45:15.939Z,72.90
2019-04-27T09:47:56.079Z,73.10
2019-04-27T09:50:33.138Z,73.20
2019-04-27T09:53:13.262Z,73.20
2019-04-27T09:55:42.353Z,73.00
2019-04-27T09:58:11.000Z,72.80
2019-04-27T10:03:50.270Z,72.60
2019-04-27T10:09:15.991Z,73.40
2019-04-27T10:11:56.780Z,73.30
2019-04-27T10:14:36.786Z,73.30
2019-04-27T10:17:13.303Z,73.30
2019-04-27T10:19:42.905Z,73.30
2019-04-27T10:22:11.042Z,73.30
2019-04-27T10:24:40.120Z,73.30
2019-04-27T10:27:08.172Z,72.90
2019-04-27T10:29:36.195Z,72.90
2019-04-27T10:32:06.956Z,72.90
2019-04-27T10:34:37.979Z,72.80
2019-04-27T10:37:09.705Z,72.80
2019-04-27T10:39:37.601Z,72.70
2019-04-27T10:42:06.938Z,72.70
2019-04-27T10:44:36.942Z,72.80
2019-04-27T10:47:05.938Z,73.10
2019-04-27T10:49:34.234Z,73.20
2019-04-27T10:52:05.837Z,73.50
2019-04-27T10:54:35.325Z,73.60
2019-04-27T10:57:05.945Z,73.70
2019-04-27T10:59:33.178Z,73.60
2019-04-27T11:02:01.484Z,72.90
2019-04-27T11:04:46.743Z,71.40
2019-04-27T11:07:16.655Z,70.40
2019-04-27T11:09:44.756Z,69.70
2019-04-27T11:12:12.968Z,69.30
2019-04-27T11:14:42.186Z,68.80
2019-04-27T11:17:11.211Z,68.10
2019-04-27T11:19:39.225Z,67.50
2019-04-27T11:22:09.408Z,67.10
2019-04-27T11:24:38.739Z,66.90
2019-04-27T11:27:08.841Z,66.90
2019-04-27T11:29:37.635Z,66.90
2019-04-27T11:32:07.396Z,66.90
2019-04-27T11:34:55.714Z,66.90
2019-04-27T11:37:25.281Z,66.80
2019-04-27T11:39:53.526Z,66.70
2019-04-27T11:42:21.476Z,66.90
2019-04-27T11:44:50.621Z,67.30
2019-04-27T11:47:18.756Z,67.00
2019-04-27T11:49:49.714Z,66.90
2019-04-27T11:52:18.466Z,66.80
2019-04-27T11:54:57.170Z,66.40
2019-04-27T11:57:30.535Z,66.30
2019-04-27T12:00:01.148Z,66.10
2019-04-27T12:02:33.459Z,65.90
2019-04-27T12:05:01.536Z,65.50
2019-04-27T12:07:29.476Z,64.50
2019-04-27T12:09:57.716Z,63.80
2019-04-27T12:12:26.237Z,63.70
2019-04-27T12:14:56.032Z,63.60
2019-04-27T12:17:28.943Z,63.80
2019-04-27T12:19:56.732Z,64.20
2019-04-27T12:22:28.145Z,64.70
2019-04-27T12:24:56.361Z,65.00
2019-04-27T12:27:35.878Z,65.10
2019-04-27T12:30:19.011Z,65.00
2019-04-27T12:32:49.730Z,65.00
2019-04-27T12:35:19.489Z,65.00
2019-04-27T12:37:47.601Z,65.20
2019-04-27T12:40:17.100Z,65.30
2019-04-27T12:42:45.100Z,65.60
2019-04-27T12:45:13.172Z,66.00
2019-04-27T12:47:42.038Z,66.70
2019-04-27T12:50:13.200Z,67.00
2019-04-27T12:52:42.727Z,67.40
2019-04-27T12:55:30.501Z,67.70
2019-04-27T12:58:03.374Z,67.90
2019-04-27T13:00:33.104Z,68.10
2019-04-27T13:03:03.111Z,68.50
2019-04-27T13:05:32.755Z,68.60
2019-04-27T13:08:03.943Z,69.10
2019-04-27T13:10:31.981Z,69.60
2019-04-27T13:13:00.620Z,69.40
2019-04-27T13:15:28.736Z,69.20
2019-04-27T13:17:57.404Z,69.20
2019-04-27T13:20:28.547Z,69.20
2019-04-27T13:23:01.725Z,68.90
2019-04-27T13:25:29.390Z,68.80
2019-04-27T13:28:01.234Z,68.80
2019-04-27T13:30:29.266Z,68.80
2019-04-27T13:32:57.436Z,68.70
2019-04-27T13:35:25.822Z,68.20
2019-04-27T13:37:55.798Z,67.60
2019-04-27T13:40:23.520Z,67.30
2019-04-27T13:42:57.233Z,66.90
2019-04-27T13:45:36.004Z,65.60
2019-04-27T13:48:11.325Z,64.70
2019-04-27T13:50:45.567Z,65.60
2019-04-27T13:53:13.504Z,65.20
2019-04-27T13:55:41.660Z,65.20
2019-04-27T13:58:09.813Z,65.30
2019-04-27T14:00:38.030Z,65.40
2019-04-27T14:03:08.903Z,65.70
2019-04-27T14:05:38.635Z,65.80
2019-04-27T14:08:06.807Z,66.00
2019-04-27T14:10:42.317Z,66.10
2019-04-27T14:13:08.810Z,66.40
2019-04-27T14:15:39.023Z,66.70
2019-04-27T14:18:08.369Z,66.80
2019-04-27T14:20:36.668Z,66.60
2019-04-27T14:23:12.230Z,66.10
2019-04-27T14:25:40.313Z,66.90
2019-04-27T14:28:08.601Z,66.90
2019-04-27T14:30:38.089Z,66.30
2019-04-27T14:33:08.879Z,65.60
2019-04-27T14:35:36.972Z,64.30
2019-04-27T14:38:04.971Z,63.50
2019-04-27T14:40:32.942Z,62.70
2019-04-27T14:43:01.397Z,62.10
2019-04-27T14:45:34.191Z,61.80
2019-04-27T14:47:59.585Z,61.90
2019-04-27T14:50:27.613Z,62.10
2019-04-27T14:52:55.726Z,62.90
2019-04-27T14:55:23.771Z,63.80
2019-04-27T14:57:51.886Z,64.50
2019-04-27T15:00:21.000Z,64.70
2019-04-27T15:02:49.157Z,65.00
2019-04-27T15:05:18.447Z,65.30
2019-04-27T15:07:46.300Z,65.60
2019-04-27T15:10:16.188Z,65.60
2019-04-27T15:12:46.774Z,65.00
2019-04-27T15:15:14.733Z,63.90
2019-04-27T15:18:06.296Z,63.20
2019-04-27T15:20:41.485Z,62.60
2019-04-27T15:23:10.167Z,61.90
2019-04-27T15:31:26.366Z,59.70
2019-04-27T15:33:56.942Z,59.40
2019-04-27T15:36:35.367Z,59.20
2019-04-27T15:39:16.093Z,59.10
2019-04-27T15:45:01.466Z,59.20
2019-04-27T15:53:56.633Z,59.10
2019-04-27T15:56:24.939Z,59.30
2019-04-27T15:59:00.006Z,59.30
2019-04-27T16:01:40.431Z,59.30
2019-04-27T16:04:11.183Z,58.80
2019-04-27T16:07:00.662Z,58.70
2019-04-27T16:09:30.006Z,58.80
2019-04-27T16:12:09.622Z,59.00
2019-04-27T16:14:29.537Z,59.30
2019-04-27T16:17:12.720Z,59.10
2019-04-27T16:19:58.069Z,59.30
2019-04-27T16:25:23.619Z,59.50
2019-04-27T16:27:50.874Z,59.20
2019-04-27T16:30:21.086Z,59.50
2019-04-27T16:32:55.084Z,59.70
2019-04-27T16:35:23.407Z,59.70
2019-04-27T16:38:09.617Z,59.90
2019-04-27T16:40:39.742Z,60.00
2019-04-27T16:43:12.184Z,60.10
2019-04-27T16:45:48.528Z,60.10
2019-04-27T16:48:18.439Z,60.20
2019-04-27T16:50:47.965Z,60.20
2019-04-27T16:53:23.623Z,60.30
2019-04-27T16:56:01.562Z,59.90
2019-04-27T16:58:25.991Z,59.70
2019-04-27T17:01:10.465Z,60.00
2019-04-27T17:03:36.799Z,59.90
2019-04-27T17:06:09.009Z,59.90
2019-04-27T17:08:51.879Z,60.10
2019-04-27T17:11:20.143Z,60.20
2019-04-27T17:14:00.613Z,60.40
2019-04-27T17:16:46.330Z,60.50
2019-04-27T17:19:21.019Z,60.00
2019-04-27T17:21:49.226Z,60.20
2019-04-27T17:24:21.265Z,60.60
2019-04-27T17:26:49.402Z,61.10
2019-04-27T17:29:20.530Z,61.40
2019-04-27T17:31:54.522Z,61.50
2019-04-27T17:34:25.316Z,61.40
2019-04-27T17:37:00.118Z,61.60
2019-04-27T17:39:29.835Z,61.70
2019-04-27T17:41:58.537Z,61.80
2019-04-27T17:44:36.685Z,61.30
2019-04-27T17:47:10.326Z,61.40
2019-04-27T17:49:40.037Z,61.90
2019-04-27T17:52:08.773Z,62.10
2019-04-27T17:54:40.808Z,61.90
2019-04-27T17:57:10.440Z,61.70
2019-04-27T17:59:37.468Z,61.90
2019-04-27T18:02:06.346Z,61.80
2019-04-27T18:04:37.672Z,62.00
2019-04-27T18:07:04.927Z,62.30
2019-04-27T18:09:33.505Z,62.50
2019-04-27T18:12:08.152Z,62.60
2019-04-27T18:14:39.502Z,63.00
2019-04-27T18:17:07.610Z,63.10
2019-04-27T18:19:40.210Z,63.40
2019-04-27T18:22:07.563Z,63.50
2019-04-27T18:24:38.035Z,63.80
2019-04-27T18:27:51.391Z,63.90
2019-04-27T18:30:41.869Z,64.10
2019-04-27T18:33:08.191Z,64.30
2019-04-27T18:35:40.745Z,64.50
2019-04-27T18:41:02.914Z,65.20
2019-04-27T18:43:29.071Z,65.70
2019-04-27T18:45:58.736Z,66.00
2019-04-27T18:48:44.728Z,66.30
2019-04-27T18:51:25.140Z,66.70
2019-04-27T18:53:54.182Z,66.70
2019-04-27T18:56:20.863Z,67.00
2019-04-27T18:58:48.686Z,67.10
2019-04-27T19:01:18.679Z,67.30
2019-04-27T19:03:47.528Z,67.70
2019-04-27T19:06:15.857Z,68.10
2019-04-27T19:08:43.678Z,68.40
2019-04-27T19:11:11.534Z,68.40
2019-04-27T19:13:40.197Z,68.40
2019-04-27T19:16:08.430Z,68.90
2019-04-27T19:18:39.859Z,69.10
2019-04-27T19:21:08.763Z,69.50
2019-04-27T19:23:40.146Z,70.20
2019-04-27T19:26:26.690Z,71.10
2019-04-27T19:29:12.237Z,72.00
2019-04-27T19:31:41.726Z,72.60
2019-04-27T19:34:12.594Z,72.30
2019-04-27T19:36:41.399Z,72.30
2019-04-27T19:39:13.727Z,72.20
2019-04-27T19:41:40.627Z,72.60
2019-04-27T19:44:10.143Z,73.60
2019-04-27T19:46:39.904Z,74.30
2019-04-27T19:49:09.629Z,75.20
2019-04-27T19:51:39.173Z,75.30
2019-04-27T19:54:09.055Z,75.30
2019-04-27T19:56:38.381Z,76.50
2019-04-27T19:59:08.956Z,76.00
2019-04-27T20:01:40.094Z,76.50
2019-04-27T20:04:28.190Z,76.70
2019-04-27T20:06:56.753Z,77.20
2019-04-27T20:09:42.991Z,76.80
2019-04-27T20:12:11.108Z,77.00
2019-04-27T20:14:52.950Z,76.70
2019-04-27T20:17:25.190Z,75.60
2019-04-27T20:19:53.302Z,75.50
2019-04-27T20:22:24.409Z,75.80
2019-04-27T20:24:52.554Z,76.20
2019-04-27T20:27:21.192Z,76.70
2019-04-27T20:29:49.422Z,76.90
2019-04-27T20:32:17.483Z,77.10
2019-04-27T20:34:49.170Z,77.30
2019-04-27T20:37:20.883Z,77.80
2019-04-27T20:39:48.436Z,78.00
2019-04-27T20:42:16.550Z,78.20
2019-04-27T20:44:46.256Z,78.60
2019-04-27T20:47:14.751Z,79.30
2019-04-27T20:49:42.826Z,79.40
2019-04-27T20:52:16.922Z,79.80
2019-04-27T20:54:45.722Z,80.10
2019-04-27T20:57:13.892Z,80.00
2019-04-27T20:59:43.093Z,80.00
2019-04-27T21:02:32.101Z,79.60
2019-04-27T21:05:03.790Z,79.10
2019-04-27T21:07:38.118Z,78.80
2019-04-27T21:10:07.419Z,79.60
2019-04-27T21:12:37.071Z,78.90
2019-04-27T21:15:05.386Z,78.50
2019-04-27T21:17:33.889Z,79.20
2019-04-27T21:20:04.626Z,77.90
2019-04-27T21:22:33.033Z,77.60
2019-04-27T21:25:02.010Z,77.20
2019-04-27T21:27:31.933Z,77.10
2019-04-27T21:30:04.623Z,77.20
2019-04-27T21:32:33.795Z,77.00
2019-04-27T21:35:02.995Z,77.00
2019-04-27T21:37:31.249Z,77.30
2019-04-27T21:40:13.181Z,77.40
2019-04-27T21:42:41.457Z,77.30
2019-04-27T21:45:11.249Z,77.30
2019-04-27T21:47:39.241Z,77.20
2019-04-27T21:50:07.481Z,77.20
2019-04-27T21:52:41.594Z,77.10
2019-04-27T21:55:11.493Z,77.10
2019-04-27T21:57:41.132Z,77.10
2019-04-27T22:00:31.326Z,77.20
2019-04-27T22:03:01.152Z,77.20
2019-04-27T22:05:31.368Z,77.10
2019-04-27T22:08:01.178Z,77.50
2019-04-27T22:10:30.909Z,77.50
2019-04-27T22:12:58.653Z,76.90
2019-04-27T22:15:31.393Z,76.90
2019-04-27T22:18:00.688Z,76.70
2019-04-27T22:20:29.348Z,76.90
2019-04-27T22:23:03.066Z,76.90
2019-04-27T22:25:35.900Z,76.90
2019-04-27T22:28:04.008Z,77.10
2019-04-27T22:30:32.066Z,77.30
2019-04-27T22:33:01.475Z,77.50
2019-04-27T22:35:32.281Z,77.60
2019-04-27T22:38:04.964Z,77.60
2019-04-27T22:40:36.148Z,77.80
2019-04-27T22:43:22.943Z,78.00
2019-04-27T22:45:51.387Z,78.00
2019-04-27T22:48:19.826Z,78.20
2019-04-27T22:50:47.932Z,78.20
2019-04-27T22:53:17.391Z,78.30
2019-04-27T22:56:03.313Z,78.40
2019-04-27T22:58:31.731Z,78.40
2019-04-27T23:01:06.865Z,78.50
2019-04-27T23:03:36.378Z,78.60
2019-04-27T23:06:04.637Z,78.60
2019-04-27T23:08:34.590Z,78.70
2019-04-27T23:11:05.590Z,78.70
2019-04-27T23:13:34.482Z,78.80
2019-04-27T23:16:05.760Z,78.90
2019-04-27T23:18:33.730Z,78.90
2019-04-27T23:21:02.429Z,78.90
2019-04-27T23:23:32.075Z,78.80
2019-04-27T23:26:01.823Z,78.80
2019-04-27T23:28:31.298Z,78.80
2019-04-27T23:31:10.900Z,78.70
2019-04-27T23:33:42.171Z,78.70
2019-04-27T23:36:11.463Z,78.50
2019-04-27T23:38:40.857Z,78.40
2019-04-27T23:41:09.011Z,78.40
2019-04-27T23:43:37.124Z,78.40
2019-04-27T23:46:05.153Z,78.40
2019-04-27T23:48:33.207Z,78.50
2019-04-27T23:51:04.543Z,79.30
2019-04-27T23:53:34.074Z,78.60
2019-04-27T23:56:01.979Z,78.60
2019-04-27T23:58:29.831Z,78.60
